createdAt,value
2023-02-13T00:02:51.868Z,6.94
2023-02-13T00:07:57.014Z,6.91
2023-02-13T00:13:00.225Z,6.91
2023-02-13T00:18:04.401Z,6.90
2023-02-13T00:23:08.527Z,6.89
2023-02-13T00:28:12.750Z,6.86
2023-02-13T00:33:16.856Z,6.85
2023-02-13T00:38:21.021Z,6.85
2023-02-13T00:43:25.147Z,6.84
2023-02-13T00:48:29.566Z,6.84
2023-02-13T00:53:33.505Z,6.85
2023-02-13T00:58:37.741Z,6.85
2023-02-13T01:03:41.885Z,6.86
2023-02-13T01:08:45.983Z,6.87
2023-02-13T01:13:50.137Z,6.93
2023-02-13T01:18:54.277Z,6.95
2023-02-13T01:23:58.478Z,6.96
2023-02-13T01:29:02.634Z,7.01
2023-02-13T01:34:06.791Z,7.06
2023-02-13T01:39:10.970Z,7.06
2023-02-13T01:44:15.116Z,7.07
2023-02-13T01:49:17.379Z,7.07
2023-02-13T01:54:21.555Z,7.07
2023-02-13T01:59:23.818Z,7.03
2023-02-13T02:04:27.991Z,7.03
2023-02-13T02:09:32.148Z,7.00
2023-02-13T02:14:36.316Z,6.97
2023-02-13T02:19:40.467Z,6.97
2023-02-13T02:24:44.659Z,6.99
2023-02-13T02:29:48.771Z,6.99
2023-02-13T02:34:52.962Z,6.96
2023-02-13T02:39:57.110Z,6.94
2023-02-13T02:45:01.320Z,6.91
2023-02-13T02:50:05.446Z,6.87
2023-02-13T02:55:09.613Z,6.84
2023-02-13T03:00:13.738Z,6.80
2023-02-13T03:05:17.920Z,6.78
2023-02-13T03:10:22.083Z,6.75
2023-02-13T03:15:26.271Z,6.73
2023-02-13T03:20:30.385Z,6.70
2023-02-13T03:25:34.737Z,6.68
2023-02-13T03:30:38.805Z,6.66
2023-02-13T03:35:42.916Z,6.65
2023-02-13T03:40:47.090Z,6.63
2023-02-13T03:45:49.408Z,6.63
2023-02-13T03:50:53.518Z,6.61
2023-02-13T03:55:57.637Z,6.63
2023-02-13T04:01:01.823Z,6.62
2023-02-13T04:06:05.988Z,6.58
2023-02-13T04:11:10.152Z,6.60
2023-02-13T04:16:14.368Z,6.60
2023-02-13T04:21:16.578Z,6.61
2023-02-13T04:26:20.736Z,6.57
2023-02-13T04:31:25.055Z,6.56
2023-02-13T04:36:29.072Z,6.54
2023-02-13T04:41:33.215Z,6.54
2023-02-13T04:46:37.371Z,6.54
2023-02-13T04:51:41.567Z,6.53
2023-02-13T04:56:45.729Z,6.52
2023-02-13T05:01:49.923Z,6.56
2023-02-13T05:06:54.042Z,6.60
2023-02-13T05:11:58.192Z,6.60
2023-02-13T05:17:02.375Z,6.58
2023-02-13T05:22:06.555Z,6.57
2023-02-13T05:27:10.708Z,6.57
2023-02-13T05:32:13.364Z,6.56
2023-02-13T05:37:17.117Z,6.55
2023-02-13T05:42:19.437Z,6.53
2023-02-13T05:47:23.565Z,6.48
2023-02-13T05:52:27.737Z,6.44
2023-02-13T05:57:33.907Z,6.35
2023-02-13T06:02:36.161Z,6.26
2023-02-13T06:07:40.209Z,6.19
2023-02-13T06:12:44.402Z,6.12
2023-02-13T06:17:48.540Z,5.97
2023-02-13T06:22:52.705Z,5.76
2023-02-13T06:27:56.916Z,5.55
2023-02-13T06:33:01.031Z,5.08
2023-02-13T06:38:05.165Z,4.90
2023-02-13T06:43:09.412Z,4.70
2023-02-13T06:48:13.517Z,4.53
2023-02-13T06:53:17.666Z,4.40
2023-02-13T06:58:21.874Z,4.31
2023-02-13T07:03:25.988Z,4.17
2023-02-13T07:08:30.194Z,4.14
2023-02-13T07:13:34.334Z,4.12
2023-02-13T07:18:38.738Z,4.11
2023-02-13T07:23:42.674Z,4.08
2023-02-13T07:28:44.918Z,4.08
2023-02-13T07:33:49.139Z,4.02
2023-02-13T07:38:51.367Z,4.01
2023-02-13T07:43:55.544Z,4.18
2023-02-13T07:48:59.719Z,4.28
2023-02-13T07:54:03.853Z,4.52
2023-02-13T07:59:08.199Z,4.48
2023-02-13T08:04:12.291Z,4.53
2023-02-13T08:09:16.366Z,4.64
2023-02-13T08:14:20.530Z,4.67
2023-02-13T08:19:24.720Z,4.74
2023-02-13T08:24:28.855Z,4.75
2023-02-13T08:29:33.040Z,4.87
2023-02-13T08:34:37.306Z,5.08
2023-02-13T08:39:41.341Z,5.25
2023-02-13T08:44:45.520Z,5.37
2023-02-13T08:49:49.692Z,5.49
2023-02-13T08:54:53.852Z,5.65
2023-02-13T08:59:58.015Z,5.81
2023-02-13T09:05:02.188Z,5.96
2023-02-13T09:10:06.320Z,6.04
2023-02-13T09:15:10.472Z,6.27
2023-02-13T09:20:14.658Z,6.33
2023-02-13T09:25:16.911Z,6.61
2023-02-13T09:30:21.092Z,6.74
2023-02-13T09:35:25.290Z,6.80
2023-02-13T09:40:29.406Z,6.86
2023-02-13T09:45:33.599Z,6.99
2023-02-13T09:50:37.735Z,7.23
2023-02-13T09:55:41.915Z,7.41
2023-02-13T10:00:46.091Z,7.61
2023-02-13T10:05:50.238Z,7.59
2023-02-13T10:10:54.427Z,7.86
2023-02-13T10:15:59.086Z,8.00
2023-02-13T10:21:02.724Z,8.08
2023-02-13T10:26:06.892Z,8.31
2023-02-13T10:31:11.139Z,8.45
2023-02-13T10:36:15.220Z,8.57
2023-02-13T10:41:19.352Z,8.75
2023-02-13T10:46:23.561Z,8.94
2023-02-13T10:51:27.695Z,9.05
2023-02-13T10:56:31.865Z,9.20
2023-02-13T11:01:36.083Z,9.39
2023-02-13T11:06:40.189Z,9.54
2023-02-13T11:11:42.440Z,9.77
2023-02-13T11:16:46.737Z,9.97
2023-02-13T11:21:48.865Z,10.02
2023-02-13T11:26:53.048Z,10.08
2023-02-13T11:31:57.305Z,10.28
2023-02-13T11:37:01.323Z,10.42
2023-02-13T11:42:05.488Z,10.57
2023-02-13T11:47:09.702Z,10.87
2023-02-13T11:52:13.859Z,10.93
2023-02-13T11:57:17.959Z,11.07
2023-02-13T12:02:22.228Z,11.12
2023-02-13T12:07:26.344Z,11.23
2023-02-13T12:12:30.492Z,11.41
2023-02-13T12:17:34.685Z,11.63
2023-02-13T12:22:38.814Z,11.71
2023-02-13T12:27:43.001Z,11.76
2023-02-13T12:32:47.126Z,12.08
2023-02-13T12:37:51.295Z,12.03
2023-02-13T12:42:55.466Z,12.10
2023-02-13T12:47:59.606Z,12.16
2023-02-13T12:53:03.770Z,12.34
2023-02-13T12:58:07.942Z,12.35
2023-02-13T13:03:12.106Z,12.58
2023-02-13T13:08:14.348Z,12.67
2023-02-13T13:13:18.507Z,12.67
2023-02-13T13:18:22.668Z,12.74
2023-02-13T13:28:30.997Z,12.95
2023-02-13T13:33:35.184Z,12.95
2023-02-13T13:38:39.325Z,13.01
2023-02-13T13:43:43.534Z,13.01
2023-02-13T13:48:47.667Z,13.09
2023-02-13T13:53:51.821Z,13.23
2023-02-13T13:58:55.955Z,13.18
2023-02-13T14:04:00.116Z,13.23
2023-02-13T14:09:04.299Z,13.21
2023-02-13T14:14:08.446Z,13.29
2023-02-13T14:19:12.625Z,13.27
2023-02-13T14:24:16.787Z,13.21
2023-02-13T14:29:20.957Z,13.09
2023-02-13T14:34:25.068Z,13.17
2023-02-13T14:39:29.289Z,13.10
2023-02-13T14:44:33.415Z,13.11
2023-02-13T14:49:37.599Z,13.03
2023-02-13T14:54:41.709Z,12.97
2023-02-13T14:59:44.011Z,12.93
2023-02-13T15:04:48.238Z,12.97
2023-02-13T15:09:50.430Z,12.90
2023-02-13T15:14:56.625Z,12.76
2023-02-13T15:19:56.868Z,12.75
2023-02-13T15:25:01.006Z,12.66
2023-02-13T15:30:05.301Z,12.63
2023-02-13T15:35:09.331Z,12.90
2023-02-13T15:40:13.516Z,13.36
2023-02-13T15:45:17.650Z,13.44
2023-02-13T15:50:21.790Z,12.88
2023-02-13T15:55:26.012Z,13.16
2023-02-13T16:00:30.120Z,13.08
2023-02-13T16:05:39.795Z,12.25
2023-02-13T16:10:38.509Z,11.62
2023-02-13T16:15:42.639Z,11.22
2023-02-13T16:20:46.786Z,11.02
2023-02-13T16:25:51.038Z,10.77
2023-02-13T16:30:55.167Z,10.55
2023-02-13T16:35:59.276Z,10.28
2023-02-13T16:41:03.453Z,10.13
2023-02-13T16:46:07.719Z,9.97
2023-02-13T16:51:11.736Z,9.71
2023-02-13T16:56:15.908Z,9.37
2023-02-13T17:01:20.138Z,9.13
2023-02-13T17:06:22.514Z,8.76
2023-02-13T17:11:26.519Z,8.54
2023-02-13T17:16:30.675Z,8.44
2023-02-13T17:21:34.817Z,8.35
2023-02-13T17:26:39.013Z,8.17
2023-02-13T17:31:43.304Z,7.94
2023-02-13T17:36:47.316Z,7.73
2023-02-13T17:41:51.474Z,7.49
2023-02-13T17:46:55.640Z,7.19
2023-02-13T17:51:59.803Z,6.93
2023-02-13T17:57:03.961Z,6.74
2023-02-13T18:02:08.149Z,6.53
2023-02-13T18:07:12.288Z,6.42
2023-02-13T18:12:16.468Z,6.40
2023-02-13T18:17:20.677Z,6.31
2023-02-13T18:22:24.749Z,6.23
2023-02-13T18:27:28.966Z,6.13
2023-02-13T18:32:33.087Z,6.01
2023-02-13T18:37:37.253Z,6.00
2023-02-13T18:42:41.412Z,5.93
2023-02-13T18:47:45.610Z,5.90
2023-02-13T18:52:47.892Z,5.77
2023-02-13T18:57:52.011Z,5.71
2023-02-13T19:02:56.220Z,5.61
2023-02-13T19:08:00.913Z,5.53
2023-02-13T19:13:04.523Z,5.50
2023-02-13T19:18:08.651Z,5.56
2023-02-13T19:23:12.843Z,5.49
2023-02-13T19:28:16.990Z,5.44
2023-02-13T19:33:21.169Z,5.37
2023-02-13T19:38:25.312Z,5.36
2023-02-13T19:43:29.510Z,5.23
2023-02-13T19:48:33.637Z,5.09
2023-02-13T19:53:37.838Z,5.02
2023-02-13T19:58:41.972Z,4.96
2023-02-13T20:03:46.178Z,4.78
2023-02-13T20:08:50.340Z,4.68
2023-02-13T20:13:54.488Z,4.55
2023-02-13T20:18:58.646Z,4.59
2023-02-13T20:24:02.793Z,4.59
2023-02-13T20:29:06.961Z,4.54
2023-02-13T20:34:11.111Z,4.49
2023-02-13T20:39:13.382Z,4.41
2023-02-13T20:44:17.544Z,4.35
2023-02-13T20:49:19.815Z,4.18
2023-02-13T20:54:24.007Z,4.00
2023-02-13T20:59:26.260Z,3.95
2023-02-13T21:04:30.426Z,3.88
2023-02-13T21:09:34.577Z,3.88
2023-02-13T21:14:38.765Z,3.82
2023-02-13T21:19:41.040Z,3.81
2023-02-13T21:24:45.225Z,3.84
2023-02-13T21:29:49.411Z,3.78
2023-02-13T21:34:53.523Z,3.68
2023-02-13T21:39:57.662Z,3.81
2023-02-13T21:45:01.889Z,3.77
2023-02-13T21:50:06.039Z,3.68
2023-02-13T21:55:10.182Z,3.61
2023-02-13T22:00:14.353Z,3.52
2023-02-13T22:05:18.644Z,3.46
2023-02-13T22:10:22.686Z,3.45
2023-02-13T22:15:26.863Z,3.43
2023-02-13T22:20:31.109Z,3.33
2023-02-13T22:25:35.161Z,3.14
2023-02-13T22:30:39.672Z,3.06
2023-02-13T22:35:43.515Z,2.95
2023-02-13T22:40:47.645Z,2.79
2023-02-13T22:45:49.950Z,2.70
2023-02-13T22:50:54.085Z,2.74
2023-02-13T22:55:56.388Z,2.52
2023-02-13T23:01:00.874Z,2.63
2023-02-13T23:06:04.714Z,2.69
2023-02-13T23:11:08.875Z,2.55
2023-02-13T23:16:13.080Z,2.46
2023-02-13T23:21:17.214Z,2.40
2023-02-13T23:31:25.590Z,2.38
2023-02-13T23:36:29.677Z,2.44
2023-02-13T23:41:33.856Z,2.45
2023-02-13T23:46:38.155Z,2.49
2023-02-13T23:51:42.160Z,2.50
2023-02-13T23:56:46.320Z,2.46
